Time;durP1;ratioP1;P1;durP2;ratioP2;P2;SDS_P1;SDS_P2;PMS_P1;PMS_P2;Temp;Humidity;BMP_temperature;BMP_pressure;BME280_temperature;BME280_humidity;BME280_pressure;Samples;Min_cycle;Max_cycle;Signal;HPM_P1;HPM_P2
2020/12/03 10:08:17;;;;;;;65.40;31.90;;;;;;;-0.42;67.13;98678.51;234836;1133;6722856;-74
2020/12/03 10:13:42;;;;;;;65.83;31.13;;;;;;;-0.19;66.89;98681.44;249861;1133;2002693;-72
2020/12/03 10:18:52;;;;;;;63.68;30.70;;;;;;;0.06;67.13;98671.20;251445;1134;115063;-72
2020/12/03 10:24:03;;;;;;;61.53;30.43;;;;;;;0.30;67.39;98661.85;251688;1135;116184;-74
2020/12/03 10:29:33;;;;;;;60.33;31.50;;;;;;;0.53;67.22;98666.47;251644;1134;114455;-73
2020/12/03 10:34:45;;;;;;;61.75;30.68;;;;;;;0.76;66.39;98654.50;251834;1134;114186;-71
2020/12/03 10:39:53;;;;;;;50.12;27.90;;;;;;;0.94;66.08;98660.05;251187;1134;114536;-74
2020/12/03 10:45:16;;;;;;;53.80;28.42;;;;;;;1.10;65.82;98655.22;251644;1133;114521;-70
2020/12/03 10:50:20;;;;;;;54.10;29.30;;;;;;;1.23;66.23;98652.24;251798;1134;114725;-74
2020/12/03 10:55:26;;;;;;;54.95;29.55;;;;;;;1.31;65.38;98653.70;251680;1135;116314;-72
2020/12/03 11:00:33;;;;;;;58.68;30.08;;;;;;;1.37;65.52;98644.80;251782;1133;115170;-75
2020/12/03 11:05:45;;;;;;;56.92;28.42;;;;;;;1.42;65.79;98624.53;251805;1134;114532;-74
2020/12/03 11:10:55;;;;;;;52.95;29.50;;;;;;;1.48;65.03;98629.58;251772;1133;115306;-74
2020/12/03 11:16:01;;;;;;;55.73;30.53;;;;;;;1.56;65.78;98624.09;251570;1134;114686;-74
2020/12/03 11:21:30;;;;;;;66.65;33.15;;;;;;;1.63;65.12;98626.48;251661;1134;114519;-75
2020/12/03 11:26:52;;;;;;;63.17;31.70;;;;;;;1.69;65.45;98624.55;251799;1134;114570;-73
2020/12/03 11:31:57;;;;;;;52.73;29.70;;;;;;;1.68;65.40;98621.08;251655;1133;114359;-74
2020/12/03 11:37:00;;;;;;;53.33;28.70;;;;;;;1.69;65.43;98621.92;251590;1135;114816;-73
2020/12/03 11:53:00;;;;;;;58.80;30.17;;;;;;;1.80;64.73;98585.70;251634;1135;114731;-70
2020/12/03 11:58:09;;;;;;;59.05;29.55;;;;;;;1.84;64.68;98572.44;251649;1134;114709;-70
2020/12/03 12:03:15;;;;;;;53.58;30.08;;;;;;;1.89;64.85;98559.16;251614;1134;114740;-70
2020/12/03 12:13:24;;;;;;;58.92;31.90;;;;;;;1.93;65.16;98566.00;251677;1134;115104;-66
2020/12/03 12:18:26;;;;;;;60.38;32.50;;;;;;;1.97;65.40;98541.39;251807;1135;115156;-65
2020/12/03 12:23:29;;;;;;;66.13;33.67;;;;;;;1.99;65.37;98547.42;251731;1139;115054;-65
2020/12/03 12:28:32;;;;;;;61.02;32.05;;;;;;;2.07;64.80;98563.78;251643;1140;114739;-64
2020/12/03 12:33:34;;;;;;;59.00;31.70;;;;;;;2.08;64.98;98547.11;251768;1134;114868;-64
2020/12/03 12:38:37;;;;;;;68.62;37.67;;;;;;;2.10;65.07;98532.14;251649;1138;115295;-64
2020/12/03 12:43:39;;;;;;;69.60;37.65;;;;;;;2.13;65.54;98529.41;251809;1137;114584;-65
2020/12/03 12:48:42;;;;;;;71.40;36.83;;;;;;;2.15;65.40;98529.37;251690;1137;114686;-65
2020/12/03 12:53:44;;;;;;;64.45;34.90;;;;;;;2.17;65.23;98514.41;251622;1135;114588;-66
2020/12/03 12:58:47;;;;;;;65.20;35.80;;;;;;;2.19;65.08;98507.34;251614;1135;114561;-66
2020/12/03 13:03:49;;;;;;;67.78;35.92;;;;;;;2.22;65.43;98499.36;251546;1135;115531;-65
2020/12/03 13:08:51;;;;;;;65.57;36.47;;;;;;;2.25;65.16;98478.25;251789;1134;114713;-66
2020/12/03 13:13:54;;;;;;;68.10;35.53;;;;;;;2.27;65.64;98460.66;250542;1135;114727;-67
2020/12/03 13:18:57;;;;;;;70.55;36.60;;;;;;;2.29;64.76;98448.34;251607;1142;114610;-67
2020/12/03 13:24:00;;;;;;;71.95;37.13;;;;;;;2.32;65.21;98457.88;251558;1135;115846;-67
2020/12/03 13:29:02;;;;;;;70.65;35.73;;;;;;;2.33;65.40;98444.67;251633;1134;114535;-68
2020/12/03 13:34:05;;;;;;;80.00;38.00;;;;;;;2.36;65.64;98441.08;251740;1135;114730;-67
2020/12/03 13:39:08;;;;;;;74.50;35.93;;;;;;;2.36;65.23;98446.33;251774;1135;114668;-67
2020/12/03 13:44:10;;;;;;;71.97;38.10;;;;;;;2.38;65.57;98447.14;251572;1135;116167;-67
2020/12/03 13:49:15;;;;;;;74.77;38.55;;;;;;;2.43;65.24;98429.42;251640;1134;114540;-67
2020/12/03 13:54:17;;;;;;;72.62;36.48;;;;;;;2.46;65.69;98428.45;251555;1135;114417;-71
2020/12/03 13:59:19;;;;;;;68.40;36.50;;;;;;;2.52;65.61;98425.59;251533;1134;114483;-65
2020/12/03 14:04:22;;;;;;;73.65;38.73;;;;;;;2.56;65.64;98441.16;251812;1134;114741;-65
2020/12/03 14:09:24;;;;;;;70.08;37.65;;;;;;;2.60;65.62;98426.14;251576;1135;114428;-64
2020/12/03 14:14:27;;;;;;;70.32;38.45;;;;;;;2.61;65.82;98409.45;251656;1135;114904;-64
2020/12/03 14:19:30;;;;;;;67.05;35.80;;;;;;;2.64;65.26;98411.11;251722;1134;114711;-65
2020/12/03 14:24:32;;;;;;;66.87;36.20;;;;;;;2.65;65.73;98402.30;251861;1135;114451;-64
2020/12/03 14:29:35;;;;;;;63.17;35.60;;;;;;;2.66;65.38;98402.26;251115;1135;114286;-67
2020/12/03 14:34:37;;;;;;;71.40;37.80;;;;;;;2.71;65.64;98391.55;251622;1134;115259;-67
2020/12/03 14:39:39;;;;;;;73.90;37.70;;;;;;;2.74;65.71;98370.41;251924;1134;115003;-67
2020/12/03 14:44:42;;;;;;;75.40;37.55;;;;;;;2.73;65.60;98356.43;252060;1134;114738;-67
2020/12/03 14:49:44;;;;;;;71.20;36.23;;;;;;;2.74;65.54;98350.25;252034;1142;114848;-66
2020/12/03 14:54:47;;;;;;;67.70;38.40;;;;;;;2.74;65.67;98336.26;252300;1144;114643;-66
2020/12/03 14:59:50;;;;;;;71.53;37.60;;;;;;;2.73;65.66;98339.81;252079;1142;114862;-67
2020/12/03 15:04:52;;;;;;;77.50;36.23;;;;;;;2.74;65.88;98354.66;252369;1141;115113;-67
2020/12/03 15:09:58;;;;;;;71.95;37.30;;;;;;;2.74;66.01;98347.62;251755;1135;116476;-67
2020/12/03 15:15:01;;;;;;;68.70;37.03;;;;;;;2.75;65.97;98345.84;251895;1134;114531;-70
2020/12/03 15:20:05;;;;;;;68.13;35.80;;;;;;;2.75;66.06;98337.96;251733;1133;114846;-68
2020/12/03 15:25:08;;;;;;;71.07;36.45;;;;;;;2.74;65.90;98325.75;251680;1134;114658;-68
2020/12/03 15:30:11;;;;;;;66.87;35.47;;;;;;;2.71;66.00;98339.86;251799;1133;114824;-68
2020/12/03 15:35:14;;;;;;;71.70;36.42;;;;;;;2.72;66.00;98340.74;251599;1135;114620;-73
2020/12/03 15:40:21;;;;;;;;;;;;;;;2.71;65.91;98339.02;251695;1135;114578;-74
2020/12/03 15:45:23;;;;;;;70.05;35.98;;;;;;;2.71;65.99;98328.50;251888;1135;102563;-74
2020/12/03 15:50:28;;;;;;;67.50;36.17;;;;;;;2.75;66.08;98319.56;251737;1134;114643;-73
2020/12/03 15:55:31;;;;;;;71.87;36.55;;;;;;;2.78;66.12;98329.95;251817;1133;114724;-69
2020/12/03 16:00:35;;;;;;;71.85;37.33;;;;;;;2.78;66.03;98319.44;251834;1134;115031;-70
2020/12/03 16:05:38;;;;;;;80.45;35.68;;;;;;;2.80;66.14;98307.95;251764;1133;114387;-69
2020/12/03 16:10:40;;;;;;;69.40;35.40;;;;;;;2.81;65.90;98298.30;251746;1134;114689;-69
2020/12/03 16:15:43;;;;;;;72.05;36.63;;;;;;;2.83;65.94;98299.95;251526;1134;115558;-70
2020/12/03 16:20:45;;;;;;;71.75;36.70;;;;;;;2.84;66.16;98314.78;251638;1133;114738;-70
2020/12/03 16:25:48;;;;;;;74.00;37.70;;;;;;;2.83;66.25;98296.47;251813;1134;114156;-69
2020/12/03 16:30:50;;;;;;;74.37;38.00;;;;;;;2.83;66.05;98296.47;251789;1135;114532;-69
2020/12/03 16:35:53;;;;;;;71.73;37.10;;;;;;;2.84;65.86;98290.28;251656;1135;114642;-69
2020/12/03 16:40:57;;;;;;;66.62;35.43;;;;;;;2.83;66.08;98288.59;251545;1135;114805;-69
2020/12/03 16:45:59;;;;;;;73.23;36.40;;;;;;;2.86;66.12;98277.10;251182;1134;114172;-70
2020/12/03 17:02:29;;;;;;;74.12;38.08;;;;;;;3.00;66.00;98261.58;249896;1132;1786653;-68
2020/12/03 17:07:32;;;;;;;82.67;39.73;;;;;;;3.01;66.01;98268.53;251875;1132;114993;-68
2020/12/03 17:12:35;;;;;;;75.75;38.95;;;;;;;3.01;66.01;98284.30;252204;1135;114643;-67
2020/12/03 17:17:38;;;;;;;72.25;36.80;;;;;;;3.01;65.91;98282.53;251999;1132;114681;-68
2020/12/03 17:22:41;;;;;;;78.17;39.48;;;;;;;3.02;65.96;98268.48;252144;1132;114333;-67
2020/12/03 17:27:43;;;;;;;77.32;37.98;;;;;;;3.08;65.94;98259.45;252277;1132;114323;-68
2020/12/03 17:32:45;;;;;;;69.40;34.17;;;;;;;3.12;65.78;98258.39;252042;1132;114782;-68
2020/12/03 17:37:48;;;;;;;62.40;31.80;;;;;;;3.21;66.03;98244.84;252043;1134;114503;-68
2020/12/03 17:42:51;;;;;;;59.13;31.82;;;;;;;3.24;65.87;98239.45;251908;1132;114529;-68
2020/12/03 17:47:55;;;;;;;65.05;32.38;;;;;;;3.23;66.00;98229.86;252005;1132;114336;-68
2020/12/03 17:52:58;;;;;;;64.15;30.72;;;;;;;3.25;65.90;98229.78;251833;1133;114612;-74
2020/12/03 17:58:03;;;;;;;59.95;31.00;;;;;;;3.28;65.93;98234.91;251949;1134;114336;-68
2020/12/03 18:03:07;;;;;;;67.00;31.52;;;;;;;3.31;65.85;98232.98;252025;1135;115681;-67
2020/12/03 18:08:10;;;;;;;68.33;31.37;;;;;;;3.32;65.91;98218.05;251890;1132;114633;-67
2020/12/03 18:13:12;;;;;;;61.68;30.23;;;;;;;3.31;65.54;98225.09;252100;1141;115409;-68
2020/12/03 18:18:15;;;;;;;57.00;28.43;;;;;;;3.34;65.46;98218.86;252017;1132;115073;-67
2020/12/03 18:23:18;;;;;;;50.98;26.68;;;;;;;3.38;65.43;98177.48;251862;1138;114510;-67
2020/12/03 18:28:21;;;;;;;53.73;26.12;;;;;;;3.40;65.41;98194.06;252001;1134;114675;-67
2020/12/03 18:33:23;;;;;;;52.20;26.15;;;;;;;3.41;65.76;98201.87;252078;1133;114564;-67
2020/12/03 18:38:26;;;;;;;47.62;23.10;;;;;;;3.44;65.43;98193.84;251840;1135;114553;-69
2020/12/03 18:43:28;;;;;;;47.00;22.62;;;;;;;3.46;65.59;98191.12;252120;1132;114722;-67
2020/12/03 18:48:32;;;;;;;41.25;21.52;;;;;;;3.49;65.56;98177.83;251959;1133;114148;-67
2020/12/03 18:53:36;;;;;;;39.23;20.00;;;;;;;3.51;65.21;98184.73;252007;1135;114140;-67
2020/12/03 18:58:38;;;;;;;38.20;20.70;;;;;;;3.54;65.33;98189.84;251937;1134;114866;-68
2020/12/03 19:03:44;;;;;;;39.00;20.77;;;;;;;3.55;64.85;98177.55;252038;1133;114814;-68
2020/12/03 19:08:48;;;;;;;45.73;19.62;;;;;;;3.58;65.17;98192.34;251799;1135;114538;-73
2020/12/03 19:13:59;;;;;;;37.58;21.12;;;;;;;3.61;64.94;98202.72;251933;1132;114465;-70
2020/12/03 19:19:02;;;;;;;37.20;19.73;;;;;;;3.63;64.96;98187.69;252065;1132;114689;-70
2020/12/03 19:24:04;;;;;;;39.48;21.33;;;;;;;3.63;65.01;98180.65;252184;1132;114592;-70
2020/12/03 19:29:07;;;;;;;41.73;19.85;;;;;;;3.65;64.59;98165.66;252013;1132;114489;-69
2020/12/03 19:34:09;;;;;;;43.13;21.55;;;;;;;3.66;64.53;98183.13;252101;1132;114284;-70
2020/12/03 19:39:12;;;;;;;39.95;20.52;;;;;;;3.66;64.77;98188.39;251803;1134;114450;-70
2020/12/03 19:44:15;;;;;;;44.17;21.13;;;;;;;3.68;64.84;98180.45;251915;1132;114940;-70
2020/12/03 19:49:18;;;;;;;36.37;19.40;;;;;;;3.70;64.40;98203.14;252134;1132;114836;-70
2020/12/03 19:54:21;;;;;;;44.73;22.45;;;;;;;3.70;64.28;98186.47;252085;1135;114529;-70
2020/12/03 19:59:24;;;;;;;46.05;21.90;;;;;;;3.70;64.61;98186.47;252091;1132;115192;-70
2020/12/03 20:04:27;;;;;;;42.40;21.37;;;;;;;3.71;64.55;98177.67;250622;1132;114483;-75
2020/12/03 20:09:30;;;;;;;46.83;22.30;;;;;;;3.70;64.51;98183.84;251915;1132;114780;-70
2020/12/03 20:14:39;;;;;;;50.95;24.57;;;;;;;3.66;64.56;98183.13;252045;1131;114709;-68
2020/12/03 20:19:41;;;;;;;50.85;24.47;;;;;;;3.63;64.39;98177.17;252155;1132;114150;-69
2020/12/03 20:24:44;;;;;;;54.00;24.60;;;;;;;3.59;64.08;98180.88;252212;1132;114591;-69
2020/12/03 20:29:46;;;;;;;48.70;23.32;;;;;;;3.51;63.89;98174.20;252043;1132;114736;-69
2020/12/03 20:34:49;;;;;;;49.50;23.73;;;;;;;3.44;63.98;98162.27;252092;1132;115751;-68
2020/12/03 20:39:52;;;;;;;50.67;24.20;;;;;;;3.41;64.14;98154.53;251829;1132;114650;-69
2020/12/03 20:45:00;;;;;;;47.50;25.65;;;;;;;3.36;63.99;98148.62;252071;1132;114185;-70
2020/12/03 20:50:03;;;;;;;50.63;24.60;;;;;;;3.29;64.33;98131.42;251993;1132;114647;-70
2020/12/03 20:55:06;;;;;;;49.45;26.00;;;;;;;3.24;64.20;98121.14;252147;1131;117951;-70
2020/12/03 21:00:09;;;;;;;59.10;28.40;;;;;;;3.24;64.41;98122.92;252048;1132;115328;-70
2020/12/03 21:05:11;;;;;;;57.65;27.22;;;;;;;3.26;63.87;98136.83;252057;1132;115242;-71
2020/12/03 21:10:14;;;;;;;56.70;27.85;;;;;;;3.28;64.01;98124.47;252073;1132;114591;-65
2020/12/03 21:15:17;;;;;;;54.73;26.82;;;;;;;3.28;64.38;98130.58;251965;1133;114690;-64
2020/12/03 21:20:19;;;;;;;55.20;26.77;;;;;;;3.29;64.08;98134.94;252047;1133;115662;-64
2020/12/03 21:25:22;;;;;;;52.87;26.50;;;;;;;3.28;64.33;98124.47;252070;1133;114681;-64
2020/12/03 21:30:24;;;;;;;51.58;25.08;;;;;;;3.25;64.46;98122.83;251977;1133;114693;-64
2020/12/03 21:35:28;;;;;;;51.00;25.62;;;;;;;3.22;64.43;98119.50;251293;1131;115064;-66
2020/12/03 21:40:31;;;;;;;48.10;25.08;;;;;;;3.19;64.84;98114.38;251842;1134;114527;-65
2020/12/03 21:45:34;;;;;;;52.87;26.93;;;;;;;3.15;64.33;98105.79;247808;1132;114575;-64
2020/12/03 21:50:36;;;;;;;55.17;28.57;;;;;;;3.13;64.44;98091.04;252158;1135;114498;-65
2020/12/03 21:55:39;;;;;;;60.48;30.50;;;;;;;3.10;64.48;98085.92;252190;1134;114466;-65
2020/12/03 22:00:41;;;;;;;55.90;28.60;;;;;;;3.08;64.41;98071.05;251914;1132;114843;-64
2020/12/03 22:05:44;;;;;;;68.10;31.35;;;;;;;3.05;64.50;98089.59;252150;1133;114613;-64
2020/12/03 22:10:46;;;;;;;58.85;30.32;;;;;;;3.09;64.66;98082.41;252170;1140;114796;-64
2020/12/03 22:15:49;;;;;;;63.00;31.20;;;;;;;3.07;64.37;98087.76;252105;1134;114272;-64
2020/12/03 22:20:51;;;;;;;65.32;31.55;;;;;;;3.04;64.38;98087.05;252192;1134;114706;-63
2020/12/03 22:25:53;;;;;;;65.03;31.07;;;;;;;3.01;64.46;98080.16;251085;1135;114983;-65
2020/12/03 22:30:56;;;;;;;63.90;31.07;;;;;;;2.94;64.26;98077.89;250896;1134;115203;-66
2020/12/03 22:35:58;;;;;;;63.20;29.85;;;;;;;2.85;64.39;98071.28;251691;1135;114653;-63
2020/12/03 22:41:01;;;;;;;64.27;30.95;;;;;;;2.79;64.53;98066.34;251992;1133;115072;-67
2020/12/03 22:46:03;;;;;;;60.45;29.42;;;;;;;2.72;64.57;98071.02;251932;1134;114165;-65
2020/12/03 22:51:06;;;;;;;62.13;29.95;;;;;;;2.70;64.87;98061.50;252150;1133;114626;-64
2020/12/03 22:56:08;;;;;;;61.53;30.85;;;;;;;2.67;64.79;98036.22;252046;1139;114510;-65
2020/12/03 23:01:13;;;;;;;66.80;31.82;;;;;;;2.64;64.59;98017.13;251995;1132;116350;-64
2020/12/03 23:06:27;;;;;;;55.03;27.73;;;;;;;2.68;65.17;97998.51;251351;1132;114265;-64
2020/12/03 23:11:39;;;;;;;63.55;30.95;;;;;;;2.73;65.10;97995.69;251998;1133;114179;-64
2020/12/03 23:17:07;;;;;;;55.88;29.48;;;;;;;2.72;64.92;97996.63;252138;1133;114760;-66
2020/12/03 23:22:09;;;;;;;55.67;29.63;;;;;;;2.69;64.92;97987.10;252028;1133;117327;-65
2020/12/03 23:27:12;;;;;;;65.30;31.00;;;;;;;2.70;65.15;98014.22;252132;1133;114202;-66
2020/12/03 23:32:14;;;;;;;66.17;30.85;;;;;;;2.73;65.06;97998.31;251948;1135;114536;-65
2020/12/03 23:37:18;;;;;;;57.73;28.73;;;;;;;2.76;65.53;97990.29;251861;1132;114997;-64
2020/12/03 23:42:21;;;;;;;59.67;29.72;;;;;;;2.75;65.19;97973.68;251911;1132;115455;-65
2020/12/03 23:47:23;;;;;;;55.23;27.87;;;;;;;2.74;65.01;97963.23;251678;1135;115519;-63
2020/12/03 23:52:26;;;;;;;57.13;27.25;;;;;;;2.72;65.27;97965.09;251977;1135;115300;-63
2020/12/03 23:57:28;;;;;;;54.85;27.40;;;;;;;2.75;65.59;97967.55;251938;1132;114477;-62
